Strona główna
METAR-TAF:

METAR-TAF

Lotnisko :

Orange County Airport

Montgomery, Nowy Jork, Stany Zjednoczone

Szerokość geograficzna: 41-30-33N, Długość geograficzna: 074-15-54W, wysokość: 111 m

Aktualna obserwacja pogody

Raport powstał 1 godzina i 6 minut temu, godzina 10:54 UTC
Wiatr 3 kt od północno-północny zachód
Temperatura 19°C
Wilgotność 100%
Ciśnienie 1009 hPa
Widzialność: 11.3 km
Mało chmury na wysokości 2000 ft
Przerywane chmury na wysokości 11000 ft
słaby deszcz

METAR: KMGJ 251054Z AUTO 34003KT 7SM -RA FEW020 BKN110 19/19 A2981 RMK AO2 RAB12 SLP094 P0001 T01940189

czas: 08:00 (12:00 UTC)


TAF: brakujący

Obserwacja i prognoza pogody dla ponad 4000 lotnisk (raport METAR i TAF).

Dostępne stacje oznaczono żółtymi i czerwonymi punktami na mapie.

Najedź kursorem aby zobaczyć nazwę stacji.

Kliknij aby zobaczyć obserwacje i prognozy pogody.

Aby zmienić mapę: kliknij na zielony przycisk z czarnym krzyżykiem, aby powiększyć; na zielony przycisk z myślnikiem, aby pomniejszyć; na zielone strzałki, aby przejść do map sąsiednich.


METAR-TAF: